Time;durP1;ratioP1;P1;durP2;ratioP2;P2;SDS_P1;SDS_P2;PMS_P1;PMS_P2;Temp;Humidity;BMP_temperature;BMP_pressure;BME280_temperature;BME280_humidity;BME280_pressure;Samples;Min_cycle;Max_cycle;Signal;HPM_P1;HPM_P2
2023/03/06 00:01:56;;;;;;;0.50;0.50;;;;;;;5.97;86.70;98852.22;5049804;28;20193;-72
2023/03/06 00:04:22;;;;;;;1.33;0.87;;;;;;;5.99;86.91;98855.56;5050475;28;20228;-72
2023/03/06 00:06:49;;;;;;;0.60;0.60;;;;;;;5.96;86.94;98842.91;5060238;28;20201;-72
2023/03/06 00:09:16;;;;;;;1.90;1.80;;;;;;;5.94;86.94;98857.38;5059225;28;20631;-72
2023/03/06 00:11:43;;;;;;;0.87;0.87;;;;;;;5.94;87.00;98857.38;5067335;28;20211;-72
2023/03/06 00:14:09;;;;;;;0.53;0.53;;;;;;;5.92;87.36;98856.53;5060871;28;20197;-72
2023/03/06 00:16:38;;;;;;;0.50;0.50;;;;;;;5.95;86.68;98855.63;5061275;28;20344;-72
2023/03/06 00:19:04;;;;;;;0.60;0.60;;;;;;;5.98;86.59;98858.97;5064613;28;20242;-72
2023/03/06 00:21:31;;;;;;;0.50;0.50;;;;;;;6.03;86.06;98861.41;5065178;28;20636;-72
2023/03/06 00:23:58;;;;;;;1.03;0.80;;;;;;;6.04;86.20;98858.03;5064292;28;20204;-72
2023/03/06 00:26:24;;;;;;;0.90;0.90;;;;;;;5.94;86.17;98852.28;5057110;28;20196;-72
2023/03/06 00:28:51;;;;;;;0.53;0.53;;;;;;;6.06;85.25;98861.34;5067060;28;20207;-71
2023/03/06 00:31:18;;;;;;;0.50;0.50;;;;;;;5.92;85.52;98838.75;5062568;28;20254;-72
2023/03/06 00:33:46;;;;;;;0.60;0.60;;;;;;;6.06;85.52;98861.34;5067807;28;20262;-72
2023/03/06 00:36:13;;;;;;;1.80;1.80;;;;;;;6.10;84.55;98868.06;5071880;28;20196;-72
2023/03/06 00:38:39;;;;;;;0.50;0.50;;;;;;;6.10;84.75;98866.38;5062183;28;20207;-72
2023/03/06 00:41:08;;;;;;;0.60;0.60;;;;;;;5.96;84.94;98848.00;5063167;28;20192;-72
2023/03/06 00:43:35;;;;;;;0.50;0.50;;;;;;;6.11;85.25;98870.56;5064070;28;20203;-72
2023/03/06 00:46:02;;;;;;;1.00;1.00;;;;;;;6.14;84.73;98869.69;5061095;28;20738;-70
2023/03/06 00:48:29;;;;;;;0.50;0.50;;;;;;;6.15;85.38;98872.19;5063146;28;20212;-72
2023/03/06 00:50:57;;;;;;;0.60;0.60;;;;;;;6.17;84.32;98874.72;5072337;28;20566;-72
2023/03/06 00:53:24;;;;;;;0.50;0.50;;;;;;;6.16;85.10;98873.88;5071717;28;20196;-72
2023/03/06 00:55:51;;;;;;;0.60;0.60;;;;;;;6.17;85.30;98879.81;5072192;28;20196;-72
2023/03/06 00:58:18;;;;;;;0.50;0.50;;;;;;;6.10;84.59;98863.81;5063485;28;20253;-72
2023/03/06 01:00:45;;;;;;;0.60;0.60;;;;;;;6.19;84.40;98881.44;5057872;28;20200;-72
2023/03/06 01:03:12;;;;;;;0.63;0.63;;;;;;;6.21;84.86;98882.22;5069155;28;20249;-71
2023/03/06 01:05:40;;;;;;;0.60;0.60;;;;;;;6.14;84.66;98864.59;5071811;28;20604;-72
2023/03/06 01:08:08;;;;;;;0.70;0.70;;;;;;;6.24;84.39;98877.06;5069830;28;20199;-72
2023/03/06 01:10:38;;;;;;;0.50;0.50;;;;;;;6.23;84.25;98879.66;5053790;28;20201;-72
2023/03/06 01:13:05;;;;;;;0.50;0.50;;;;;;;6.25;84.19;98876.22;5052985;28;20205;-72
2023/03/06 01:15:32;;;;;;;0.80;0.80;;;;;;;6.27;83.87;98863.44;5064253;28;20203;-72
2023/03/06 01:18:00;;;;;;;0.50;0.50;;;;;;;6.19;84.36;98868.72;5063938;28;20257;-72
2023/03/06 01:20:28;;;;;;;0.50;0.50;;;;;;;6.15;84.44;98877.28;5070410;28;20266;-72
2023/03/06 01:22:55;;;;;;;0.80;0.80;;;;;;;6.04;84.63;98865.66;5068895;28;20207;-72
2023/03/06 01:25:24;;;;;;;0.70;0.70;;;;;;;6.07;84.83;98868.13;5063497;28;20649;-71
2023/03/06 01:27:51;;;;;;;0.70;0.70;;;;;;;6.10;84.69;98876.53;5071791;28;20257;-72
2023/03/06 01:30:19;;;;;;;0.43;0.43;;;;;;;6.09;85.38;98872.31;5061982;28;20212;-72
2023/03/06 01:32:47;;;;;;;0.57;0.57;;;;;;;6.05;84.73;98870.69;5063014;28;20192;-72
2023/03/06 01:35:14;;;;;;;0.50;0.50;;;;;;;5.94;83.79;98853.97;5070151;28;20258;-72
2023/03/06 01:37:41;;;;;;;0.60;0.60;;;;;;;6.12;83.00;98879.03;5066792;28;20216;-72
2023/03/06 01:40:11;;;;;;;0.50;0.50;;;;;;;6.11;83.56;98878.19;5052659;28;20201;-72
2023/03/06 01:42:40;;;;;;;0.70;0.70;;;;;;;6.09;84.17;98872.31;5063652;28;20196;-72
2023/03/06 01:45:45;;;;;;;0.50;0.50;;;;;;;6.08;85.91;98882.50;5057695;28;20208;-72
2023/03/06 01:48:12;;;;;;;0.60;0.60;;;;;;;6.01;86.83;98884.34;5065796;28;20579;-72
2023/03/06 01:50:39;;;;;;;0.60;0.60;;;;;;;5.96;86.91;98880.22;5070897;28;20204;-72
2023/03/06 01:53:06;;;;;;;0.63;0.63;;;;;;;5.83;87.42;98882.13;5070308;28;20203;-72
2023/03/06 01:55:35;;;;;;;0.70;0.70;;;;;;;5.66;87.43;98876.53;5063172;28;20270;-72
2023/03/06 01:58:06;;;;;;;0.50;0.50;;;;;;;5.64;87.57;98885.91;5071020;28;20667;-72
2023/03/06 02:00:33;;;;;;;0.63;0.63;;;;;;;5.63;86.93;98889.28;5061055;28;20724;-72
2023/03/06 02:03:09;;;;;;;0.90;0.90;;;;;;;5.58;86.60;98878.38;5054028;28;20197;-72
2023/03/06 02:05:36;;;;;;;0.60;0.60;;;;;;;5.58;86.46;98888.56;5060432;28;20242;-72
2023/03/06 02:08:04;;;;;;;0.77;0.77;;;;;;;5.59;85.33;98885.97;5063362;28;20262;-72
2023/03/06 02:10:31;;;;;;;0.70;0.70;;;;;;;5.62;85.11;98890.19;5068677;28;20216;-72
2023/03/06 02:12:58;;;;;;;0.70;0.70;;;;;;;5.61;85.47;98898.66;5070612;28;20644;-72
2023/03/06 02:15:28;;;;;;;0.70;0.70;;;;;;;5.56;85.98;98897.91;5070181;28;20729;-72
2023/03/06 02:17:55;;;;;;;0.60;0.60;;;;;;;5.50;86.44;98903.09;5069759;28;20196;-72
2023/03/06 02:20:29;;;;;;;0.60;0.60;;;;;;;5.43;86.94;98909.19;5059732;28;20228;-72
2023/03/06 02:23:02;;;;;;;0.67;0.67;;;;;;;5.24;87.53;98878.97;5066470;28;20197;-72
2023/03/06 02:25:36;;;;;;;0.50;0.50;;;;;;;5.37;87.56;98899.09;5052733;28;20614;-72
2023/03/06 02:28:04;;;;;;;0.50;0.50;;;;;;;5.18;87.12;98891.78;5066147;28;20278;-72
2023/03/06 02:30:31;;;;;;;0.63;0.63;;;;;;;5.25;87.83;98911.16;5069899;28;20216;-72
2023/03/06 02:32:58;;;;;;;0.53;0.53;;;;;;;5.24;88.05;98917.09;5067627;28;20196;-72
2023/03/06 02:35:26;;;;;;;0.63;0.63;;;;;;;5.12;88.07;98904.59;5054172;28;20553;-72
2023/03/06 02:37:54;;;;;;;0.60;0.60;;;;;;;5.07;88.34;98911.44;5066660;28;20204;-72
2023/03/06 02:40:22;;;;;;;0.60;0.60;;;;;;;5.05;88.86;98903.00;5069482;28;20221;-72
2023/03/06 02:42:52;;;;;;;0.50;0.50;;;;;;;5.10;88.67;98911.41;5069707;28;20203;-73
2023/03/06 02:45:26;;;;;;;1.03;1.03;;;;;;;5.08;88.37;98915.66;5054374;28;20216;-72
2023/03/06 02:47:53;;;;;;;0.70;0.70;;;;;;;5.05;88.77;98912.31;5061246;28;20200;-73
2023/03/06 02:50:20;;;;;;;0.60;0.60;;;;;;;4.99;90.05;98922.59;5069353;28;20222;-72
2023/03/06 02:52:47;;;;;;;0.57;0.57;;;;;;;4.98;90.03;98914.13;5070105;28;20218;-72
2023/03/06 02:55:14;;;;;;;0.70;0.70;;;;;;;4.96;89.86;98918.41;5069655;28;20310;-72
2023/03/06 02:57:41;;;;;;;0.60;0.60;;;;;;;4.89;90.38;98916.81;5070100;28;20192;-72
2023/03/06 03:00:11;;;;;;;0.60;0.60;;;;;;;4.86;90.05;98924.47;5069453;28;20318;-72
2023/03/06 03:02:38;;;;;;;0.50;0.50;;;;;;;4.84;90.74;98923.69;5069830;28;20280;-72
2023/03/06 03:05:05;;;;;;;0.70;0.70;;;;;;;4.84;90.93;98921.13;5052322;28;20619;-72
2023/03/06 03:07:32;;;;;;;0.90;0.90;;;;;;;4.83;90.78;98927.06;5050660;28;20201;-72
2023/03/06 03:09:59;;;;;;;0.53;0.53;;;;;;;4.85;91.13;98930.41;5059025;28;21540;-72
2023/03/06 03:12:27;;;;;;;0.60;0.60;;;;;;;4.92;91.01;98924.38;5059010;28;20200;-72
2023/03/06 03:14:54;;;;;;;0.50;0.50;;;;;;;4.94;90.61;98920.13;5063593;28;20200;-72
2023/03/06 03:17:23;;;;;;;0.70;0.70;;;;;;;4.92;89.90;98921.84;5061955;28;20655;-72
2023/03/06 03:19:50;;;;;;;0.53;0.53;;;;;;;4.87;89.99;98926.16;5069315;28;20649;-66
2023/03/06 03:22:17;;;;;;;0.60;0.60;;;;;;;4.80;89.88;98921.19;5054712;28;20615;-66
2023/03/06 03:24:44;;;;;;;0.60;0.60;;;;;;;4.70;90.11;98915.41;5069551;28;20660;-66
2023/03/06 03:27:11;;;;;;;0.60;0.60;;;;;;;4.67;89.54;98915.44;5063989;28;20580;-66
2023/03/06 03:29:37;;;;;;;0.70;0.70;;;;;;;4.65;89.71;98901.97;5053530;28;22074;-67
2023/03/06 03:32:05;;;;;;;0.70;0.70;;;;;;;4.76;89.04;98925.47;5058126;28;20200;-66
2023/03/06 03:34:33;;;;;;;1.13;1.03;;;;;;;4.80;89.04;98929.66;5056601;28;20196;-66
2023/03/06 03:37:00;;;;;;;0.60;0.60;;;;;;;4.82;89.06;98927.91;5057872;28;20197;-66
2023/03/06 03:39:27;;;;;;;0.60;0.60;;;;;;;4.88;89.99;98925.28;5055516;28;20207;-66
2023/03/06 03:41:54;;;;;;;0.50;0.50;;;;;;;4.91;89.11;98929.50;5059274;28;20215;-66
2023/03/06 03:44:21;;;;;;;0.60;0.60;;;;;;;4.94;89.04;98934.53;5064613;28;20679;-66
2023/03/06 03:46:47;;;;;;;0.70;0.70;;;;;;;4.88;88.62;98920.19;5059419;28;20204;-66
2023/03/06 03:49:14;;;;;;;0.60;0.60;;;;;;;4.74;89.36;98914.50;5063436;28;20220;-66
2023/03/06 03:51:43;;;;;;;1.17;1.17;;;;;;;4.72;89.74;98923.81;5054486;28;20672;-66
2023/03/06 03:54:10;;;;;;;0.60;0.60;;;;;;;4.71;90.43;98932.31;5062651;28;20192;-66
2023/03/06 03:56:39;;;;;;;0.60;0.60;;;;;;;4.55;90.51;98906.31;5065969;28;20203;-66
2023/03/06 03:59:06;;;;;;;0.50;0.50;;;;;;;4.63;90.93;98918.88;5072031;28;20200;-66
2023/03/06 04:01:32;;;;;;;0.70;0.70;;;;;;;4.52;90.67;98910.59;5060333;28;20193;-66
2023/03/06 04:03:59;;;;;;;0.50;0.50;;;;;;;4.41;90.50;98912.44;5063105;28;20196;-66
2023/03/06 04:06:26;;;;;;;0.53;0.53;;;;;;;4.37;91.20;98923.47;5069956;28;20267;-66
2023/03/06 04:08:55;;;;;;;0.60;0.60;;;;;;;4.18;91.31;98905.13;5064206;28;20691;-66
2023/03/06 04:11:22;;;;;;;0.50;0.50;;;;;;;4.27;91.75;98935.44;5064170;28;20216;-66
2023/03/06 04:13:48;;;;;;;0.70;0.70;;;;;;;4.23;91.92;98934.63;5066578;28;20579;-66
2023/03/06 04:16:15;;;;;;;0.60;0.60;;;;;;;4.22;92.13;98932.13;5064334;28;20625;-66
2023/03/06 04:18:42;;;;;;;0.70;0.70;;;;;;;4.13;93.15;98933.09;5064621;28;20196;-66
2023/03/06 04:21:09;;;;;;;0.70;0.70;;;;;;;4.00;93.68;98941.69;5062846;28;20764;-66
2023/03/06 04:23:35;;;;;;;0.60;0.60;;;;;;;3.95;94.11;98943.44;5056175;28;20699;-66
2023/03/06 04:26:04;;;;;;;0.63;0.63;;;;;;;3.87;94.88;98940.16;5060848;28;20215;-66
2023/03/06 04:28:30;;;;;;;0.70;0.70;;;;;;;3.82;95.25;98941.03;5058630;28;20204;-66
2023/03/06 04:30:57;;;;;;;0.60;0.60;;;;;;;3.71;95.26;98928.50;5057668;28;20220;-66
2023/03/06 04:33:24;;;;;;;0.57;0.57;;;;;;;3.79;95.75;98949.50;5069155;28;20203;-66
2023/03/06 04:35:51;;;;;;;0.50;0.50;;;;;;;3.78;96.37;98945.28;5066313;28;20199;-66
2023/03/06 04:38:17;;;;;;;0.70;0.70;;;;;;;3.75;96.16;98945.31;5066272;28;20196;-66
2023/03/06 04:40:45;;;;;;;1.20;1.20;;;;;;;3.70;96.40;98952.16;5071331;28;20196;-66
2023/03/06 04:43:13;;;;;;;0.60;0.60;;;;;;;3.69;96.35;98945.41;5061448;28;20203;-66
2023/03/06 04:45:39;;;;;;;0.60;0.60;;;;;;;3.76;96.23;98961.38;5066107;28;20200;-66
2023/03/06 04:48:06;;;;;;;0.60;0.60;;;;;;;3.80;95.84;98958.81;5055961;28;20201;-66
2023/03/06 04:50:33;;;;;;;1.00;1.00;;;;;;;3.87;95.21;98954.53;5056751;28;20573;-66
2023/03/06 04:53:01;;;;;;;0.80;0.80;;;;;;;3.83;94.51;98947.78;5068815;28;20200;-71
2023/03/06 04:55:28;;;;;;;0.50;0.50;;;;;;;3.94;94.16;98966.28;5065510;28;20199;-72
2023/03/06 04:57:55;;;;;;;0.60;0.60;;;;;;;4.01;94.19;98966.19;5063851;28;20262;-71
2023/03/06 05:00:29;;;;;;;0.50;0.50;;;;;;;4.09;94.19;98972.03;5067146;28;20208;-72
2023/03/06 05:02:56;;;;;;;0.60;0.60;;;;;;;4.11;94.11;98970.28;5060328;28;20244;-72
2023/03/06 05:05:23;;;;;;;0.57;0.57;;;;;;;4.17;94.24;98975.28;5053153;28;20266;-72
2023/03/06 05:07:49;;;;;;;0.53;0.53;;;;;;;4.17;93.70;98977.84;5060299;28;20586;-72
2023/03/06 05:10:18;;;;;;;0.60;0.60;;;;;;;4.24;93.69;98971.84;5063120;28;20220;-72
2023/03/06 05:12:45;;;;;;;0.60;0.60;;;;;;;4.29;93.33;98989.56;5056821;28;20199;-72
2023/03/06 05:15:13;;;;;;;0.60;0.60;;;;;;;4.32;93.35;98988.69;5062282;28;20192;-72
2023/03/06 05:17:41;;;;;;;0.80;0.80;;;;;;;4.37;93.85;98990.28;5051813;28;20205;-72
2023/03/06 05:20:10;;;;;;;0.70;0.70;;;;;;;4.46;93.89;98996.97;5060723;28;20576;-72
2023/03/06 05:22:37;;;;;;;0.70;0.70;;;;;;;4.55;93.34;99001.94;5046739;28;20668;-72
2023/03/06 05:25:04;;;;;;;1.20;1.20;;;;;;;4.57;93.18;99005.28;5060286;28;20199;-72
2023/03/06 05:27:32;;;;;;;0.70;0.70;;;;;;;4.58;93.12;99007.81;5061652;28;20201;-71
2023/03/06 05:29:58;;;;;;;0.67;0.67;;;;;;;4.60;93.17;99017.94;5063954;28;20216;-72
2023/03/06 05:32:25;;;;;;;1.90;1.90;;;;;;;4.64;92.84;99011.97;5063023;28;20257;-72
2023/03/06 05:34:54;;;;;;;0.80;0.80;;;;;;;4.61;92.76;99017.09;5071103;28;20200;-71
2023/03/06 05:37:21;;;;;;;0.53;0.53;;;;;;;4.59;93.13;99008.63;5070460;28;20196;-72
2023/03/06 05:39:48;;;;;;;0.90;0.90;;;;;;;4.63;93.05;99020.44;5067358;28;20199;-71
2023/03/06 05:42:15;;;;;;;0.57;0.57;;;;;;;4.42;93.55;98996.16;5055479;28;20209;-72
2023/03/06 05:44:42;;;;;;;0.63;0.63;;;;;;;4.60;94.40;99028.09;5062864;28;20205;-71
2023/03/06 05:47:10;;;;;;;0.60;0.60;;;;;;;4.60;94.31;99026.38;5056198;28;20207;-71
2023/03/06 05:49:36;;;;;;;0.70;0.70;;;;;;;4.58;94.43;99032.34;5059552;28;20265;-68
2023/03/06 05:52:06;;;;;;;1.07;1.07;;;;;;;4.42;94.59;99008.00;5058909;28;20192;-70
2023/03/06 05:54:35;;;;;;;0.67;0.67;;;;;;;4.61;95.00;99032.31;5056402;28;20659;-71
2023/03/06 05:57:03;;;;;;;0.50;0.50;;;;;;;4.75;95.19;99036.34;5056591;28;20205;-67
2023/03/06 05:59:31;;;;;;;0.50;0.50;;;;;;;4.84;95.09;99035.41;5055476;28;20250;-69
2023/03/06 06:01:59;;;;;;;0.53;0.53;;;;;;;4.98;94.77;99038.59;5055108;28;20303;-67
2023/03/06 06:04:27;;;;;;;0.50;0.50;;;;;;;5.13;94.08;99040.09;5054783;28;20283;-67
2023/03/06 06:06:55;;;;;;;0.60;0.60;;;;;;;5.21;92.26;99028.94;5060443;28;20204;-69
2023/03/06 06:09:24;;;;;;;0.50;0.50;;;;;;;5.34;91.57;99041.47;5060702;28;20208;-69
2023/03/06 06:11:52;;;;;;;0.70;0.70;;;;;;;5.47;90.39;99043.81;5062226;28;20215;-70
2023/03/06 06:14:18;;;;;;;0.50;0.50;;;;;;;5.59;88.87;99047.88;5061247;28;20297;-69
2023/03/06 06:16:45;;;;;;;1.13;1.03;;;;;;;5.64;89.24;99033.38;5060370;28;20204;-69
2023/03/06 06:19:17;;;;;;;0.60;0.60;;;;;;;5.74;87.59;99047.63;5062118;28;20253;-69
2023/03/06 06:21:46;;;;;;;0.90;0.90;;;;;;;5.81;87.68;99044.97;5061958;28;20660;-69
2023/03/06 06:24:12;;;;;;;0.70;0.70;;;;;;;5.85;86.59;99048.25;5059861;28;20204;-69
2023/03/06 06:26:41;;;;;;;0.60;0.60;;;;;;;5.95;86.60;99052.34;5061919;28;20208;-69
2023/03/06 06:29:07;;;;;;;0.60;0.60;;;;;;;5.99;87.05;99054.00;5067513;28;20200;-70
2023/03/06 06:31:36;;;;;;;0.93;0.93;;;;;;;5.92;86.88;99037.16;5055328;28;20216;-70
2023/03/06 06:34:03;;;;;;;0.60;0.60;;;;;;;6.14;85.15;99063.09;5054070;28;20727;-70
2023/03/06 06:36:29;;;;;;;0.50;0.50;;;;;;;6.18;85.74;99060.44;5057339;28;20201;-72
2023/03/06 06:38:56;;;;;;;0.50;0.50;;;;;;;6.23;84.93;99058.66;5054224;28;20208;-72
2023/03/06 06:41:23;;;;;;;0.70;0.70;;;;;;;6.33;84.81;99065.25;5055521;28;20273;-71
2023/03/06 06:43:52;;;;;;;0.60;0.60;;;;;;;6.36;85.01;99058.44;5057666;28;20302;-72
2023/03/06 06:46:19;;;;;;;0.50;0.50;;;;;;;6.42;85.37;99045.59;5060318;28;20212;-72
2023/03/06 06:48:48;;;;;;;0.50;0.50;;;;;;;6.58;85.61;99055.44;5056769;28;20193;-72
2023/03/06 06:51:15;;;;;;;1.30;1.30;;;;;;;6.71;84.86;99063.69;5062822;28;20227;-72
2023/03/06 06:53:41;;;;;;;0.50;0.50;;;;;;;6.81;84.45;99066.03;5061452;28;20200;-72
2023/03/06 06:56:08;;;;;;;0.40;0.40;;;;;;;6.90;83.32;99066.69;5059872;28;20200;-72
2023/03/06 06:58:35;;;;;;;0.80;0.80;;;;;;;6.98;83.45;99070.75;5055395;28;20210;-72
2023/03/06 07:01:06;;;;;;;0.60;0.60;;;;;;;7.04;82.42;99064.69;5059140;28;20200;-72
2023/03/06 07:03:33;;;;;;;0.50;0.50;;;;;;;7.21;82.88;99072.81;5059038;28;20625;-73
2023/03/06 07:06:01;;;;;;;0.60;0.60;;;;;;;7.27;82.77;99078.59;5061250;28;20242;-75
2023/03/06 07:08:28;;;;;;;0.67;0.67;;;;;;;7.36;82.13;99078.44;5053906;28;20216;-74
2023/03/06 07:10:54;;;;;;;0.50;0.50;;;;;;;7.43;81.92;99068.09;5061342;28;20220;-74
2023/03/06 07:13:21;;;;;;;0.57;0.57;;;;;;;7.60;82.81;99082.09;5063783;28;20703;-74
2023/03/06 07:15:48;;;;;;;0.80;0.80;;;;;;;7.76;82.37;99080.88;5058758;28;20258;-73
2023/03/06 07:18:16;;;;;;;0.60;0.60;;;;;;;8.00;82.62;99078.59;5056644;28;20441;-60
2023/03/06 07:20:43;;;;;;;0.60;0.60;;;;;;;8.28;80.68;99085.56;5051649;28;20717;-61
2023/03/06 07:23:12;;;;;;;0.50;0.50;;;;;;;8.48;78.54;99090.13;5055378;28;20431;-67
2023/03/06 07:25:39;;;;;;;0.50;0.50;;;;;;;8.58;77.81;99065.19;5059121;28;20503;-68
2023/03/06 07:28:06;;;;;;;0.70;0.70;;;;;;;8.87;76.38;99088.22;5063469;28;20258;-66
2023/03/06 07:30:32;;;;;;;0.60;0.60;;;;;;;9.03;78.20;99094.56;5057679;28;20216;-72
2023/03/06 07:32:59;;;;;;;0.70;0.70;;;;;;;9.12;78.62;99094.28;5059687;28;20200;-72
2023/03/06 07:35:28;;;;;;;0.50;0.50;;;;;;;9.21;77.85;99099.13;5064844;28;20587;-72
2023/03/06 07:37:54;;;;;;;0.70;0.70;;;;;;;9.38;78.29;99098.63;5062939;28;20196;-71
2023/03/06 07:40:21;;;;;;;0.60;0.60;;;;;;;9.42;77.39;99090.84;5067163;28;20744;-72
2023/03/06 07:42:48;;;;;;;1.23;1.23;;;;;;;9.62;74.21;99094.50;5068249;28;20213;-71
2023/03/06 07:45:15;;;;;;;0.67;0.67;;;;;;;9.73;74.09;99105.22;5064863;28;20860;-71
2023/03/06 07:47:42;;;;;;;0.50;0.50;;;;;;;9.85;74.77;99092.91;5058987;28;20202;-71
2023/03/06 07:50:10;;;;;;;0.50;0.50;;;;;;;9.97;71.54;99102.75;5064353;28;20199;-72
2023/03/06 07:52:38;;;;;;;0.90;0.90;;;;;;;10.01;73.20;99103.47;5054928;28;20200;-72
2023/03/06 07:55:06;;;;;;;0.50;0.50;;;;;;;10.18;73.80;99106.31;5066610;28;20197;-72
2023/03/06 07:57:33;;;;;;;0.60;0.60;;;;;;;10.28;74.21;99102.56;5064937;28;20690;-72
2023/03/06 07:59:59;;;;;;;0.50;0.50;;;;;;;10.47;73.76;99103.63;5065222;28;20203;-72
2023/03/06 08:02:26;;;;;;;0.60;0.60;;;;;;;10.65;73.09;99114.13;5061917;28;20653;-72
2023/03/06 08:04:53;;;;;;;0.40;0.40;;;;;;;10.82;72.59;99110.09;5061802;28;20223;-72
2023/03/06 08:07:21;;;;;;;0.50;0.50;;;;;;;10.99;71.15;99119.72;5065075;28;20205;-72
2023/03/06 08:09:50;;;;;;;0.60;0.60;;;;;;;11.09;70.94;99128.75;5066525;28;20672;-72
2023/03/06 08:12:17;;;;;;;0.73;0.73;;;;;;;11.21;70.02;99120.59;5064210;28;20220;-72
2023/03/06 08:14:43;;;;;;;0.73;0.73;;;;;;;11.38;69.21;99131.09;5061607;28;20259;-72
2023/03/06 08:17:10;;;;;;;0.73;0.73;;;;;;;11.48;69.52;99141.84;5066717;28;20644;-72
2023/03/06 08:19:37;;;;;;;1.53;1.53;;;;;;;11.66;69.00;99135.19;5067855;28;20261;-73
2023/03/06 08:22:04;;;;;;;0.60;0.60;;;;;;;11.87;67.51;99131.78;5066195;28;20245;-72
2023/03/06 08:24:31;;;;;;;0.60;0.60;;;;;;;12.00;64.93;99125.28;5063212;28;20204;-72
2023/03/06 08:26:59;;;;;;;0.50;0.50;;;;;;;12.06;63.86;99099.34;5065115;28;20204;-72
2023/03/06 08:29:26;;;;;;;0.60;0.60;;;;;;;12.10;65.42;99100.88;5059127;28;20703;-73
2023/03/06 08:31:53;;;;;;;0.40;0.40;;;;;;;12.31;64.72;99109.44;5059056;28;20224;-73
2023/03/06 08:34:23;;;;;;;0.60;0.60;;;;;;;12.49;66.63;99096.66;5063622;28;20203;-73
2023/03/06 08:36:49;;;;;;;0.97;0.97;;;;;;;12.69;66.21;99092.38;5064137;28;20203;-72
2023/03/06 08:39:16;;;;;;;0.40;0.40;;;;;;;12.96;65.53;99106.59;5065131;28;20197;-73
2023/03/06 08:41:43;;;;;;;0.60;0.60;;;;;;;13.09;63.14;99107.75;5058641;28;20203;-72
2023/03/06 08:44:12;;;;;;;0.60;0.60;;;;;;;13.16;63.08;99104.00;5060249;28;20193;-72
2023/03/06 08:46:39;;;;;;;0.47;0.47;;;;;;;13.32;64.68;99097.25;5065176;28;20215;-72
2023/03/06 08:49:06;;;;;;;0.73;0.73;;;;;;;13.46;64.20;99094.88;5064514;28;20209;-72
2023/03/06 08:51:33;;;;;;;0.63;0.63;;;;;;;13.64;65.03;99093.16;5060604;28;20293;-72
2023/03/06 08:54:00;;;;;;;0.60;0.60;;;;;;;13.41;62.51;99076.22;5061110;28;20200;-72
2023/03/06 08:56:28;;;;;;;0.60;0.60;;;;;;;13.67;66.45;99096.44;5064674;28;20643;-72
2023/03/06 08:58:57;;;;;;;0.50;0.50;;;;;;;13.86;64.33;99093.00;5061210;28;20259;-72
2023/03/06 09:01:27;;;;;;;0.50;0.50;;;;;;;13.75;61.97;99097.81;5062414;28;20567;-72
2023/03/06 09:03:56;;;;;;;0.43;0.43;;;;;;;13.68;62.24;99085.22;5058020;28;20256;-72
2023/03/06 09:06:23;;;;;;;0.47;0.47;;;;;;;13.66;61.38;99091.38;5062737;28;20592;-75
2023/03/06 09:08:50;;;;;;;0.57;0.57;;;;;;;13.50;61.14;99068.09;5057933;28;20207;-71
2023/03/06 09:11:17;;;;;;;1.20;1.20;;;;;;;13.85;60.22;99096.47;5061567;28;20696;-72
2023/03/06 09:13:44;;;;;;;0.70;0.70;;;;;;;14.03;61.29;99090.41;5064495;28;20204;-72
2023/03/06 09:16:12;;;;;;;0.80;0.80;;;;;;;14.01;59.72;99092.25;5066577;28;20713;-72
2023/03/06 09:18:40;;;;;;;0.50;0.50;;;;;;;14.12;59.53;99089.94;5060595;28;20218;-72
2023/03/06 09:21:08;;;;;;;0.50;0.50;;;;;;;14.09;57.69;99087.53;5061839;28;20635;-72
2023/03/06 09:23:35;;;;;;;0.57;0.57;;;;;;;14.21;59.17;99084.38;5059650;28;20201;-73
2023/03/06 09:26:02;;;;;;;0.63;0.63;;;;;;;14.26;57.15;99086.69;5059032;28;20201;-73
2023/03/06 09:28:29;;;;;;;0.80;0.80;;;;;;;14.15;58.83;99082.09;5064622;28;20201;-73
2023/03/06 09:30:56;;;;;;;0.50;0.50;;;;;;;14.26;58.14;99087.53;5069196;28;20575;-72
2023/03/06 09:33:23;;;;;;;0.73;0.73;;;;;;;14.49;58.97;99083.84;5060207;28;20680;-72
2023/03/06 09:35:53;;;;;;;0.90;0.90;;;;;;;14.55;57.44;99089.50;5058071;28;20208;-72
2023/03/06 09:38:21;;;;;;;1.10;1.10;;;;;;;14.66;59.25;99087.22;5065236;28;20230;-71
2023/03/06 09:41:01;;;;;;;0.93;0.93;;;;;;;14.70;58.31;99078.38;5060310;28;20207;-72
2023/03/06 09:43:34;;;;;;;0.67;0.67;;;;;;;14.91;60.00;99080.78;5064680;28;20200;-72
2023/03/06 09:46:01;;;;;;;0.50;0.50;;;;;;;14.96;59.52;99068.47;5061224;28;20201;-72
2023/03/06 09:48:40;;;;;;;0.50;0.50;;;;;;;14.86;61.21;99031.16;5055621;28;20283;-72
2023/03/06 09:51:11;;;;;;;0.60;0.60;;;;;;;15.41;55.27;99075.47;5062560;28;20227;-73
2023/03/06 09:53:49;;;;;;;0.33;0.33;;;;;;;15.35;55.57;99068.06;5062671;28;20210;-72
2023/03/06 09:56:19;;;;;;;1.27;1.27;;;;;;;15.34;55.08;99067.25;5059550;28;20583;-73
2023/03/06 09:58:49;;;;;;;0.80;0.80;;;;;;;15.37;54.88;99067.06;5065561;28;20196;-72
2023/03/06 10:01:21;;;;;;;0.60;0.60;;;;;;;15.26;54.96;99074.56;5061041;28;20211;-74
2023/03/06 10:03:53;;;;;;;0.60;0.60;;;;;;;15.12;55.81;99067.53;5059920;28;20262;-73
2023/03/06 10:06:26;;;;;;;0.47;0.47;;;;;;;15.05;57.29;99057.66;5065732;28;20240;-73
2023/03/06 10:08:58;;;;;;;0.50;0.50;;;;;;;14.94;57.71;99054.81;5062875;28;20201;-78
2023/03/06 10:11:32;;;;;;;0.43;0.43;;;;;;;14.85;57.94;99061.28;5057088;28;20221;-72
2023/03/06 10:14:14;;;;;;;0.40;0.40;;;;;;;14.88;56.40;99055.13;5063697;28;20622;-73
2023/03/06 10:16:41;;;;;;;0.40;0.40;;;;;;;14.95;57.70;99059.91;5059992;28;20207;-72
2023/03/06 10:19:14;;;;;;;0.60;0.60;;;;;;;15.11;57.93;99037.50;5068181;28;20235;-72
2023/03/06 10:21:53;;;;;;;0.37;0.37;;;;;;;15.18;55.56;99038.84;5064301;28;20254;-72
2023/03/06 10:24:41;;;;;;;0.50;0.50;;;;;;;15.35;55.87;99055.97;5058385;28;20273;-72
2023/03/06 10:27:16;;;;;;;0.50;0.50;;;;;;;15.34;55.20;99049.16;5051695;28;20728;-76
2023/03/06 10:29:56;;;;;;;0.40;0.40;;;;;;;15.03;54.88;99037.06;5058390;28;20782;-77
2023/03/06 10:32:30;;;;;;;0.67;0.67;;;;;;;15.08;54.92;99047.16;5062112;28;20224;-76
2023/03/06 10:35:00;;;;;;;0.47;0.47;;;;;;;14.86;54.58;99032.00;5057839;28;20202;-78
2023/03/06 10:37:29;;;;;;;0.50;0.50;;;;;;;14.83;54.81;99008.09;5066849;28;20583;-76
2023/03/06 10:40:03;;;;;;;0.70;0.70;;;;;;;14.88;53.87;99029.31;5060986;28;20263;-79
2023/03/06 10:42:30;;;;;;;1.70;0.97;;;;;;;14.80;53.85;99034.06;5061100;28;20215;-76
2023/03/06 10:45:08;;;;;;;0.90;0.90;;;;;;;15.08;55.39;99023.94;5058481;28;20647;-76
2023/03/06 10:47:36;;;;;;;0.50;0.50;;;;;;;15.06;53.92;99018.00;5055072;28;20211;-77
2023/03/06 10:50:05;;;;;;;0.70;0.70;;;;;;;15.21;53.14;99019.75;5055930;28;20216;-76
2023/03/06 10:52:35;;;;;;;0.87;0.87;;;;;;;15.42;54.85;99008.22;5061465;28;20281;-75
2023/03/06 10:55:26;;;;;;;0.50;0.50;;;;;;;15.69;54.82;99004.13;5062883;28;20205;-75
2023/03/06 10:57:53;;;;;;;0.70;0.70;;;;;;;15.66;51.39;98999.13;5060351;28;20205;-78
2023/03/06 11:00:26;;;;;;;0.30;0.30;;;;;;;15.41;53.78;98987.66;5062564;28;20265;-75
2023/03/06 11:03:20;;;;;;;0.40;0.40;;;;;;;15.55;52.92;98983.41;5059725;28;20196;-75
2023/03/06 11:06:02;;;;;;;0.60;0.60;;;;;;;15.63;51.50;98988.13;5062416;28;20215;-70
2023/03/06 11:08:31;;;;;;;0.50;0.50;;;;;;;15.56;51.96;98982.50;5056896;28;20208;-73
2023/03/06 11:11:00;;;;;;;0.67;0.67;;;;;;;15.39;51.27;98974.81;5059580;28;20200;-73
2023/03/06 11:13:30;;;;;;;0.40;0.40;;;;;;;15.50;53.07;98969.94;5054265;28;20224;-73
2023/03/06 11:16:00;;;;;;;0.90;0.90;;;;;;;15.33;49.73;98964.00;5060110;28;20556;-73
2023/03/06 11:18:34;;;;;;;0.80;0.80;;;;;;;15.30;53.72;98954.69;5061449;28;20200;-71
2023/03/06 11:21:06;;;;;;;0.40;0.40;;;;;;;15.47;53.95;98957.16;5055989;28;20200;-73
2023/03/06 11:23:41;;;;;;;0.80;0.80;;;;;;;15.53;51.60;98962.00;5061760;28;20200;-72
2023/03/06 11:26:41;;;;;;;1.53;1.53;;;;;;;15.62;52.44;98951.13;5063109;28;20682;-73
2023/03/06 11:29:26;;;;;;;0.60;0.60;;;;;;;15.72;52.65;98931.59;5055946;28;20203;-73
2023/03/06 11:31:57;;;;;;;0.60;0.60;;;;;;;15.92;51.43;98938.19;5062063;28;20231;-73
2023/03/06 11:34:36;;;;;;;0.60;0.60;;;;;;;16.01;48.78;98949.72;5053608;28;20200;-74
2023/03/06 11:37:09;;;;;;;0.50;0.50;;;;;;;15.93;49.47;98934.66;5057439;28;20254;-75
2023/03/06 11:39:43;;;;;;;0.80;0.80;;;;;;;15.98;48.16;98932.63;5057548;28;20200;-73
2023/03/06 11:42:19;;;;;;;0.40;0.40;;;;;;;16.09;49.49;98924.25;5064193;28;20279;-74
2023/03/06 11:44:55;;;;;;;0.50;0.50;;;;;;;16.16;51.45;98915.16;5061395;28;20203;-73
2023/03/06 11:47:25;;;;;;;0.90;0.83;;;;;;;16.19;50.26;98917.56;5069617;28;20207;-72